Time;durP1;ratioP1;P1;durP2;ratioP2;P2;SDS_P1;SDS_P2;PMS_P1;PMS_P2;Temp;Humidity;BMP_temperature;BMP_pressure;BME280_temperature;BME280_humidity;BME280_pressure;Samples;Min_cycle;Max_cycle;Signal;HPM_P1;HPM_P2
2022/12/04 00:00:39;;;;;;;55.45;28.55;;;0.30;99.90;;;;;;5058031;28;20045;-43
2022/12/04 00:03:04;;;;;;;59.00;31.48;;;0.30;99.90;;;;;;5058287;28;20102;-43
2022/12/04 00:05:30;;;;;;;61.17;31.88;;;0.40;99.90;;;;;;5059115;28;20041;-43
2022/12/04 00:07:56;;;;;;;58.03;31.85;;;0.40;99.90;;;;;;5059168;28;20363;-43
2022/12/04 00:10:21;;;;;;;59.85;30.50;;;0.40;99.90;;;;;;5057576;28;20041;-42
2022/12/04 00:12:47;;;;;;;55.40;29.52;;;0.40;99.90;;;;;;5058246;28;20048;-43
2022/12/04 00:15:12;;;;;;;57.65;31.30;;;0.40;99.90;;;;;;5058773;28;20036;-45
2022/12/04 00:17:38;;;;;;;52.28;28.23;;;0.40;99.90;;;;;;5057543;28;20052;-46
2022/12/04 00:20:04;;;;;;;58.67;29.90;;;0.40;99.90;;;;;;5058709;28;20045;-41
2022/12/04 00:22:30;;;;;;;54.53;29.42;;;0.50;99.90;;;;;;5058726;28;20127;-43
2022/12/04 00:24:55;;;;;;;57.28;28.98;;;0.50;99.90;;;;;;5058774;28;20519;-41
2022/12/04 00:27:21;;;;;;;51.67;28.40;;;0.50;99.90;;;;;;5058546;28;20044;-43
2022/12/04 00:29:47;;;;;;;55.45;27.00;;;0.50;99.90;;;;;;5057977;28;20324;-42
2022/12/04 00:32:12;;;;;;;53.40;27.17;;;0.50;99.90;;;;;;5058149;28;20074;-49
2022/12/04 00:34:38;;;;;;;51.85;26.60;;;0.50;99.90;;;;;;5057564;28;20513;-48
2022/12/04 00:37:04;;;;;;;50.88;26.13;;;0.50;99.90;;;;;;5058453;28;20045;-42
2022/12/04 00:39:29;;;;;;;53.05;27.30;;;0.50;99.90;;;;;;5048370;28;20106;-46
2022/12/04 00:41:55;;;;;;;47.05;26.77;;;0.50;99.90;;;;;;5055996;28;20040;-40
2022/12/04 00:44:21;;;;;;;51.72;27.08;;;0.50;99.90;;;;;;5058261;28;20127;-43
2022/12/04 00:46:46;;;;;;;49.63;27.67;;;0.50;99.90;;;;;;5059032;28;20667;-46
2022/12/04 00:49:12;;;;;;;52.03;27.30;;;0.50;99.90;;;;;;5058601;28;20047;-44
2022/12/04 00:51:37;;;;;;;49.78;26.95;;;0.50;99.90;;;;;;5057562;28;20091;-43
2022/12/04 00:54:03;;;;;;;45.78;27.13;;;0.50;99.90;;;;;;5052198;28;20360;-45
2022/12/04 00:56:29;;;;;;;49.33;27.48;;;0.50;99.90;;;;;;5057904;28;20430;-44
2022/12/04 00:58:57;;;;;;;46.35;26.35;;;0.50;99.90;;;;;;5041316;28;20044;-42
2022/12/04 01:01:24;;;;;;;48.70;26.23;;;0.50;99.90;;;;;;5057295;28;20126;-41
2022/12/04 01:03:50;;;;;;;55.38;28.70;;;0.50;99.90;;;;;;5058662;28;20063;-41
2022/12/04 01:06:28;;;;;;;47.35;26.73;;;0.50;99.90;;;;;;5058201;28;20124;-43
2022/12/04 01:08:55;;;;;;;51.38;29.63;;;0.50;99.90;;;;;;5058434;28;20052;-44
2022/12/04 01:11:22;;;;;;;53.88;27.55;;;0.50;99.90;;;;;;5057760;28;20072;-41
2022/12/04 01:13:47;;;;;;;52.00;27.42;;;0.60;99.90;;;;;;5058073;28;20060;-46
2022/12/04 01:16:18;;;;;;;50.35;27.27;;;0.60;99.90;;;;;;5058087;28;20037;-43
2022/12/04 01:18:44;;;;;;;46.22;26.10;;;0.60;99.90;;;;;;5056637;28;20109;-40
2022/12/04 01:21:10;;;;;;;50.55;27.55;;;0.60;99.90;;;;;;5057939;28;20048;-41
2022/12/04 01:23:36;;;;;;;50.30;26.30;;;0.60;99.90;;;;;;5058410;28;20123;-41
2022/12/04 01:26:02;;;;;;;48.22;27.00;;;0.60;99.90;;;;;;5070568;28;20074;-46
2022/12/04 01:28:28;;;;;;;51.05;27.55;;;0.60;99.90;;;;;;5057398;28;20045;-41
2022/12/04 01:31:02;;;;;;;50.22;26.55;;;0.60;99.90;;;;;;5057875;28;20155;-46
2022/12/04 01:33:29;;;;;;;48.90;25.88;;;0.60;99.90;;;;;;5058247;28;20141;-44
2022/12/04 01:35:59;;;;;;;44.85;25.73;;;0.60;99.90;;;;;;5057381;28;20060;-44
2022/12/04 01:38:26;;;;;;;52.63;27.95;;;0.60;99.90;;;;;;5055925;28;20036;-40
2022/12/04 01:40:53;;;;;;;57.22;28.92;;;0.60;99.90;;;;;;5046823;28;20344;-47
2022/12/04 01:43:20;;;;;;;47.85;26.80;;;0.50;99.90;;;;;;5057913;28;20071;-44
2022/12/04 01:45:49;;;;;;;50.30;26.80;;;0.50;99.90;;;;;;5058338;28;20040;-40
2022/12/04 01:48:29;;;;;;;49.35;26.58;;;0.50;99.90;;;;;;5057798;28;20036;-39
2022/12/04 01:51:11;;;;;;;46.50;26.48;;;0.50;99.90;;;;;;5057611;28;20053;-41
2022/12/04 01:53:40;;;;;;;50.10;28.38;;;0.50;99.90;;;;;;5049813;28;20510;-45
2022/12/04 01:56:06;;;;;;;50.35;28.33;;;0.50;99.90;;;;;;5057684;28;20045;-42
2022/12/04 01:58:36;;;;;;;57.33;29.50;;;0.50;99.90;;;;;;5056626;28;20040;-40
2022/12/04 02:01:05;;;;;;;50.15;27.08;;;0.50;99.90;;;;;;5058260;28;20049;-42
2022/12/04 02:03:32;;;;;;;48.28;26.05;;;0.50;99.90;;;;;;5059666;28;20055;-46
2022/12/04 02:05:57;;;;;;;49.80;28.15;;;0.50;99.90;;;;;;5058480;28;20133;-44
2022/12/04 02:08:25;;;;;;;45.33;25.17;;;0.50;99.90;;;;;;5058692;28;20049;-47
2022/12/04 02:11:10;;;;;;;47.92;25.67;;;0.50;99.90;;;;;;5060861;28;20044;-42
2022/12/04 02:14:00;;;;;;;50.13;26.80;;;0.50;99.90;;;;;;5061052;28;20708;-41
2022/12/04 02:16:37;;;;;;;49.25;27.23;;;0.50;99.90;;;;;;5061806;28;20490;-39
2022/12/04 02:19:22;;;;;;;50.58;26.98;;;0.50;99.90;;;;;;5060358;28;20047;-45
2022/12/04 02:21:51;;;;;;;53.45;26.35;;;0.50;99.90;;;;;;5061095;28;20394;-44
2022/12/04 02:24:45;;;;;;;49.88;27.55;;;0.50;99.90;;;;;;5061281;28;20541;-41
2022/12/04 02:27:49;;;;;;;55.25;27.85;;;0.50;99.90;;;;;;5061667;28;20127;-39
2022/12/04 02:30:15;;;;;;;55.33;29.00;;;0.50;99.90;;;;;;5061059;28;20495;-42
2022/12/04 02:32:58;;;;;;;52.80;27.13;;;0.50;99.90;;;;;;5061228;28;20059;-40
2022/12/04 02:35:32;;;;;;;47.20;27.63;;;0.50;99.90;;;;;;5061532;28;20082;-45
2022/12/04 02:38:17;;;;;;;54.08;27.55;;;0.50;99.90;;;;;;5059528;28;20309;-43
2022/12/04 02:41:01;;;;;;;50.80;27.52;;;0.50;99.90;;;;;;5048436;28;20040;-44
2022/12/04 02:43:34;;;;;;;51.58;29.08;;;0.50;99.90;;;;;;5059585;28;20044;-43
2022/12/04 02:46:06;;;;;;;52.05;28.65;;;0.50;99.90;;;;;;5061508;28;20572;-43
2022/12/04 02:48:38;;;;;;;52.78;27.33;;;0.50;99.90;;;;;;5060517;28;20094;-41
2022/12/04 02:51:05;;;;;;;55.67;29.77;;;0.50;99.90;;;;;;5060443;28;20067;-45
2022/12/04 02:53:36;;;;;;;56.70;30.65;;;0.50;99.90;;;;;;5059952;28;20239;-41
2022/12/04 02:56:12;;;;;;;56.58;30.00;;;0.50;99.90;;;;;;5060678;28;20603;-41
2022/12/04 02:58:48;;;;;;;54.63;30.42;;;0.40;99.90;;;;;;5060663;28;20121;-42
2022/12/04 03:01:20;;;;;;;50.55;29.33;;;0.50;99.90;;;;;;5059864;28;20490;-44
2022/12/04 03:03:56;;;;;;;55.42;31.15;;;0.40;99.90;;;;;;5060480;28;20044;-41
2022/12/04 03:06:24;;;;;;;53.97;30.50;;;0.50;99.90;;;;;;5059361;28;20064;-42
2022/12/04 03:09:03;;;;;;;52.47;28.77;;;0.50;99.90;;;;;;5060140;28;20733;-41
2022/12/04 03:11:33;;;;;;;52.92;29.17;;;0.40;99.90;;;;;;5046908;28;20513;-43
2022/12/04 03:14:11;;;;;;;56.75;31.65;;;0.40;99.90;;;;;;5060009;28;20119;-44
2022/12/04 03:16:41;;;;;;;57.63;31.58;;;0.40;99.90;;;;;;5058555;28;20501;-44
2022/12/04 03:19:22;;;;;;;55.58;30.20;;;0.40;99.90;;;;;;5058945;28;20044;-41
2022/12/04 03:21:52;;;;;;;55.25;29.60;;;0.40;99.90;;;;;;5059546;28;20494;-43
2022/12/04 03:24:43;;;;;;;58.35;31.45;;;0.40;99.90;;;;;;5046904;28;20051;-41
2022/12/04 03:27:32;;;;;;;55.38;30.20;;;0.40;99.90;;;;;;5043535;28;20067;-45
2022/12/04 03:30:05;;;;;;;56.88;31.25;;;0.40;99.90;;;;;;5059703;28;20063;-42
2022/12/04 03:32:49;;;;;;;55.50;29.23;;;0.40;99.90;;;;;;5060194;28;20479;-41
2022/12/04 03:35:41;;;;;;;64.45;31.95;;;0.40;99.90;;;;;;5060051;28;20083;-42
2022/12/04 03:38:16;;;;;;;56.30;30.50;;;0.30;99.90;;;;;;5059758;28;20040;-41
2022/12/04 03:41:23;;;;;;;59.30;30.65;;;0.40;99.90;;;;;;5046720;28;20044;-44
2022/12/04 03:44:03;;;;;;;59.72;32.40;;;0.30;99.90;;;;;;4983579;28;20129;-44
2022/12/04 03:46:38;;;;;;;58.88;30.30;;;0.30;99.90;;;;;;5014184;28;20559;-46
2022/12/04 03:49:16;;;;;;;56.72;31.77;;;0.30;99.90;;;;;;4980506;28;20086;-45
2022/12/04 03:51:54;;;;;;;57.95;31.38;;;0.30;99.90;;;;;;4996366;28;20093;-44
2022/12/04 03:54:45;;;;;;;55.85;29.70;;;0.30;99.90;;;;;;4973819;28;20497;-41
2022/12/04 03:57:17;;;;;;;59.40;31.52;;;0.30;99.90;;;;;;4996196;28;20137;-42
2022/12/04 03:59:53;;;;;;;59.67;30.52;;;0.30;99.90;;;;;;4979957;28;20098;-45
2022/12/04 04:02:21;;;;;;;58.63;31.23;;;0.30;99.90;;;;;;4996525;28;20089;-48
2022/12/04 04:04:50;;;;;;;59.63;32.28;;;0.30;99.90;;;;;;4983258;28;20050;-41
2022/12/04 04:07:33;;;;;;;63.42;32.70;;;0.30;99.90;;;;;;4996315;28;20104;-47
2022/12/04 04:10:04;;;;;;;57.30;32.05;;;0.30;99.90;;;;;;4996033;28;20050;-44
2022/12/04 04:12:35;;;;;;;60.38;33.17;;;0.30;99.90;;;;;;4995977;28;20111;-44
2022/12/04 04:26:37;;;;;;;62.33;33.30;;;0.20;99.90;;;;;;5058219;28;20113;-47
2022/12/04 04:29:02;;;;;;;64.70;34.58;;;0.20;99.90;;;;;;5050711;28;20079;-45
2022/12/04 04:31:42;;;;;;;65.18;34.40;;;0.20;99.90;;;;;;5058083;28;20147;-45
2022/12/04 04:34:31;;;;;;;64.78;32.60;;;0.10;99.90;;;;;;5057914;28;20345;-41
2022/12/04 04:37:18;;;;;;;63.03;33.33;;;0.10;99.90;;;;;;5030864;28;20046;-43
2022/12/04 04:40:08;;;;;;;66.32;34.17;;;0.10;99.90;;;;;;5003968;28;20049;-43
2022/12/04 04:42:38;;;;;;;64.25;34.83;;;0.10;99.90;;;;;;5005684;28;20068;-43
2022/12/04 04:45:15;;;;;;;67.03;35.05;;;0.10;99.90;;;;;;5017246;28;20057;-43
2022/12/04 04:47:59;;;;;;;65.65;36.25;;;0.10;99.90;;;;;;5027424;28;20072;-43
2022/12/04 04:50:27;;;;;;;68.57;36.10;;;0.10;99.90;;;;;;5003702;28;20121;-40
2022/12/04 04:52:58;;;;;;;62.33;34.53;;;0.10;99.90;;;;;;5022010;28;20503;-44
2022/12/04 04:55:25;;;;;;;64.00;35.17;;;0.10;99.90;;;;;;5024541;28;20470;-47
2022/12/04 04:57:50;;;;;;;65.30;34.85;;;0.10;99.90;;;;;;5018993;28;20041;-44
2022/12/04 05:00:20;;;;;;;69.22;34.25;;;0.10;99.90;;;;;;5014726;28;20095;-40
2022/12/04 05:02:47;;;;;;;69.55;35.88;;;0.10;99.90;;;;;;5014625;28;20054;-41
2022/12/04 05:05:13;;;;;;;67.65;35.08;;;0.00;99.90;;;;;;5015187;28;20054;-44
2022/12/04 05:07:39;;;;;;;63.25;35.00;;;0.00;99.90;;;;;;5014920;28;20077;-47
2022/12/04 05:10:05;;;;;;;73.38;37.78;;;0.00;99.90;;;;;;5014558;28;20061;-44
2022/12/04 05:12:31;;;;;;;66.82;35.85;;;0.00;99.90;;;;;;5031588;28;20080;-42
2022/12/04 05:14:56;;;;;;;63.38;36.00;;;0.00;99.90;;;;;;5055147;28;20052;-44
2022/12/04 05:17:22;;;;;;;64.57;35.80;;;0.00;99.90;;;;;;5057592;28;20051;-40
2022/12/04 05:19:55;;;;;;;67.68;35.95;;;0.00;99.90;;;;;;5058555;28;20132;-45
2022/12/04 05:22:30;;;;;;;70.07;37.72;;;0.00;99.90;;;;;;5057912;28;20122;-48
2022/12/04 05:24:57;;;;;;;67.93;36.00;;;0.00;99.90;;;;;;5058620;28;20489;-44
2022/12/04 05:27:23;;;;;;;65.75;35.75;;;0.00;99.90;;;;;;5058544;28;20521;-44
2022/12/04 05:29:52;;;;;;;69.30;37.05;;;0.00;99.90;;;;;;5057903;28;20308;-47
2022/12/04 05:32:19;;;;;;;71.50;38.03;;;-0.10;99.90;;;;;;5056169;28;20867;-42
2022/12/04 05:34:51;;;;;;;62.10;34.60;;;-0.10;99.90;;;;;;5058254;28;20044;-45
2022/12/04 05:37:17;;;;;;;66.80;35.75;;;-0.10;99.90;;;;;;5045529;28;20044;-44
2022/12/04 05:39:43;;;;;;;65.75;36.38;;;0.00;99.90;;;;;;5044725;28;20044;-44
2022/12/04 05:42:09;;;;;;;62.42;34.83;;;-0.10;99.90;;;;;;5056874;28;20059;-46
2022/12/04 05:44:34;;;;;;;66.35;35.08;;;0.00;99.90;;;;;;5060726;28;20390;-46
2022/12/04 05:47:00;;;;;;;64.80;37.03;;;0.00;99.90;;;;;;5061924;28;20109;-45
2022/12/04 05:49:28;;;;;;;65.15;36.50;;;0.00;99.90;;;;;;5061841;28;20048;-42
2022/12/04 05:51:54;;;;;;;64.97;35.28;;;0.00;99.90;;;;;;5060000;28;20087;-43
2022/12/04 05:54:20;;;;;;;65.63;37.38;;;0.00;99.90;;;;;;5055148;28;20076;-48
2022/12/04 05:56:46;;;;;;;67.97;36.65;;;0.00;99.90;;;;;;5062154;28;20068;-42
2022/12/04 05:59:12;;;;;;;63.92;35.83;;;0.00;99.90;;;;;;5061731;28;20464;-45
2022/12/04 06:01:38;;;;;;;67.07;36.25;;;0.00;99.90;;;;;;5048189;28;20055;-42
2022/12/04 06:04:04;;;;;;;69.85;36.15;;;0.00;99.90;;;;;;5060601;28;20049;-43
2022/12/04 06:06:29;;;;;;;66.10;35.92;;;0.00;99.90;;;;;;5061567;28;20041;-44
2022/12/04 06:08:57;;;;;;;74.50;37.72;;;0.00;99.90;;;;;;5061484;28;20048;-45
2022/12/04 06:11:28;;;;;;;64.00;35.28;;;0.00;99.90;;;;;;5060888;28;20124;-48
2022/12/04 06:13:55;;;;;;;67.28;36.83;;;-0.10;99.90;;;;;;5058796;28;20661;-42
2022/12/04 06:16:32;;;;;;;65.07;35.30;;;0.00;99.90;;;;;;5061459;28;20044;-42
2022/12/04 06:19:01;;;;;;;65.50;36.20;;;0.00;99.90;;;;;;5060301;28;20131;-40
2022/12/04 06:21:30;;;;;;;62.42;34.78;;;0.00;99.90;;;;;;5061511;28;20047;-41
2022/12/04 06:23:56;;;;;;;62.85;34.70;;;0.00;99.90;;;;;;5061240;28;20051;-41
2022/12/04 06:26:22;;;;;;;64.50;35.53;;;0.00;99.90;;;;;;5061778;28;20048;-44
2022/12/04 06:28:48;;;;;;;62.70;33.78;;;-0.10;99.90;;;;;;5060919;28;20047;-40
2022/12/04 06:31:17;;;;;;;59.45;32.83;;;0.00;99.90;;;;;;5059696;28;20417;-44
2022/12/04 06:33:44;;;;;;;62.38;34.05;;;0.00;99.90;;;;;;5060871;28;20071;-40
2022/12/04 06:36:16;;;;;;;59.72;34.13;;;0.00;99.90;;;;;;5061337;28;20055;-42
2022/12/04 06:38:42;;;;;;;69.07;37.45;;;-0.10;99.90;;;;;;5056749;28;20049;-41
2022/12/04 06:41:10;;;;;;;63.28;36.50;;;0.00;99.90;;;;;;5051901;28;20059;-46
2022/12/04 06:43:36;;;;;;;62.78;36.17;;;0.00;99.90;;;;;;5059812;28;20125;-45
2022/12/04 06:46:11;;;;;;;63.13;34.67;;;0.00;99.90;;;;;;5060587;28;20842;-45
2022/12/04 06:48:37;;;;;;;60.60;35.30;;;0.00;99.90;;;;;;5060939;28;20048;-42
2022/12/04 06:51:10;;;;;;;66.82;35.55;;;0.00;99.90;;;;;;5060282;28;20101;-41
2022/12/04 06:53:36;;;;;;;62.95;35.53;;;0.00;99.90;;;;;;5053543;28;20041;-40
2022/12/04 06:56:04;;;;;;;65.68;35.67;;;0.00;99.90;;;;;;5060196;28;20054;-43
2022/12/04 06:58:30;;;;;;;58.67;33.45;;;0.00;99.90;;;;;;5059330;28;20048;-48
2022/12/04 07:00:57;;;;;;;64.25;35.60;;;0.10;99.90;;;;;;5058880;28;20052;-42
2022/12/04 07:03:24;;;;;;;60.47;34.35;;;0.00;99.90;;;;;;5059937;28;20041;-47
2022/12/04 07:05:49;;;;;;;62.80;33.95;;;0.10;99.90;;;;;;5060373;28;20707;-42
2022/12/04 07:08:15;;;;;;;57.85;33.10;;;0.10;99.90;;;;;;5060123;28;20051;-44
2022/12/04 07:10:42;;;;;;;58.03;33.53;;;0.10;99.90;;;;;;5059935;28;20052;-44
2022/12/04 07:13:08;;;;;;;61.63;32.28;;;0.00;99.90;;;;;;5058355;28;20450;-45
2022/12/04 07:15:36;;;;;;;58.92;32.95;;;0.10;99.90;;;;;;5059845;28;20036;-42
2022/12/04 07:18:02;;;;;;;60.63;33.78;;;0.10;99.90;;;;;;5059559;28;20070;-47
2022/12/04 07:20:29;;;;;;;59.95;32.90;;;0.10;99.90;;;;;;5060145;28;20498;-42
2022/12/04 07:22:54;;;;;;;56.00;32.63;;;0.10;99.90;;;;;;5058530;28;20494;-41
2022/12/04 07:25:20;;;;;;;57.83;31.70;;;0.10;99.90;;;;;;5060765;28;20052;-42
2022/12/04 07:27:45;;;;;;;59.20;34.08;;;0.10;99.90;;;;;;5059435;28;20055;-40
2022/12/04 07:30:12;;;;;;;56.75;33.05;;;0.10;99.90;;;;;;5059399;28;20763;-42
2022/12/04 07:32:37;;;;;;;61.30;35.03;;;0.10;99.90;;;;;;5058387;28;20052;-47
2022/12/04 07:35:04;;;;;;;64.18;35.92;;;0.10;99.90;;;;;;5060184;28;20055;-44
2022/12/04 07:37:30;;;;;;;57.65;31.98;;;0.10;99.90;;;;;;5060184;28;20391;-45
2022/12/04 07:39:56;;;;;;;60.05;34.75;;;0.10;99.90;;;;;;5047924;28;20381;-44
2022/12/04 07:42:21;;;;;;;63.15;35.28;;;0.20;99.90;;;;;;5059352;28;20102;-47
2022/12/04 07:44:47;;;;;;;60.88;33.50;;;0.20;99.90;;;;;;5059785;28;20048;-44
2022/12/04 07:47:13;;;;;;;60.38;33.35;;;0.10;99.90;;;;;;5060258;28;20041;-43
2022/12/04 07:49:39;;;;;;;64.32;32.97;;;0.10;99.90;;;;;;5059338;28;20053;-43
2022/12/04 07:52:05;;;;;;;65.72;35.15;;;0.10;99.90;;;;;;5058823;28;20052;-44
2022/12/04 07:54:31;;;;;;;60.53;32.58;;;0.20;99.90;;;;;;5058944;28;20041;-40
2022/12/04 07:56:56;;;;;;;62.95;34.13;;;0.10;99.90;;;;;;5058677;28;20137;-47
2022/12/04 07:59:22;;;;;;;62.10;34.15;;;0.10;99.90;;;;;;5058990;28;20121;-43
2022/12/04 08:01:48;;;;;;;67.13;35.83;;;0.10;99.90;;;;;;5058707;28;20088;-46
2022/12/04 08:04:13;;;;;;;67.53;35.30;;;0.10;99.90;;;;;;5059629;28;20541;-44
2022/12/04 08:06:39;;;;;;;62.28;32.67;;;0.10;99.90;;;;;;5058191;28;20780;-45
2022/12/04 08:09:06;;;;;;;62.60;32.75;;;0.10;99.90;;;;;;5057713;28;20052;-46
2022/12/04 08:11:32;;;;;;;61.90;33.60;;;0.10;99.90;;;;;;5058487;28;20382;-44
2022/12/04 08:14:03;;;;;;;63.05;34.53;;;0.10;99.90;;;;;;5058796;28;20044;-44
2022/12/04 08:16:31;;;;;;;64.82;34.60;;;0.10;99.90;;;;;;5058861;28;20047;-41
2022/12/04 08:18:58;;;;;;;62.85;35.13;;;0.10;99.90;;;;;;5057884;28;20040;-46
2022/12/04 08:21:26;;;;;;;62.28;32.95;;;0.10;99.90;;;;;;5057090;28;20819;-43
2022/12/04 08:23:53;;;;;;;65.57;35.20;;;0.10;99.90;;;;;;5056804;28;20387;-43
2022/12/04 08:26:20;;;;;;;69.00;36.38;;;0.10;99.90;;;;;;5059108;28;20055;-45
2022/12/04 08:28:45;;;;;;;68.75;34.38;;;0.20;99.90;;;;;;5058646;28;20059;-41
2022/12/04 08:31:20;;;;;;;69.80;36.90;;;0.10;99.90;;;;;;5058550;28;20028;-40
2022/12/04 08:33:47;;;;;;;62.83;34.70;;;0.10;99.90;;;;;;5058524;28;20043;-40
2022/12/04 08:36:15;;;;;;;63.35;33.90;;;0.10;99.90;;;;;;5060343;28;20045;-44
2022/12/04 08:38:41;;;;;;;66.38;33.08;;;0.20;99.90;;;;;;5068696;28;20370;-40
2022/12/04 08:41:10;;;;;;;62.75;34.60;;;0.20;99.90;;;;;;5066937;28;20032;-45
2022/12/04 08:43:35;;;;;;;63.35;33.90;;;0.20;99.90;;;;;;5061671;28;20380;-45
2022/12/04 08:46:07;;;;;;;66.10;35.72;;;0.20;99.90;;;;;;5067953;28;20032;-40
2022/12/04 08:48:33;;;;;;;66.75;35.97;;;0.20;99.90;;;;;;5062606;28;20040;-47
2022/12/04 08:51:00;;;;;;;64.90;35.25;;;0.20;99.90;;;;;;5066461;28;20041;-47
2022/12/04 08:53:25;;;;;;;67.07;37.17;;;0.30;99.90;;;;;;5062718;28;20166;-42
2022/12/04 08:55:51;;;;;;;67.20;34.72;;;0.20;99.90;;;;;;5065513;28;20081;-40
2022/12/04 08:58:18;;;;;;;66.45;35.97;;;0.30;99.90;;;;;;5039677;28;20036;-42
2022/12/04 09:00:44;;;;;;;64.25;34.63;;;0.30;99.90;;;;;;5050660;28;20395;-42
2022/12/04 09:03:18;;;;;;;62.65;33.85;;;0.30;99.90;;;;;;5057507;28;20048;-44
2022/12/04 09:05:44;;;;;;;64.15;33.47;;;0.40;99.90;;;;;;5057800;28;20431;-46
2022/12/04 09:08:11;;;;;;;63.30;34.22;;;0.40;99.90;;;;;;5056387;28;20037;-43
2022/12/04 09:10:37;;;;;;;63.20;32.78;;;0.40;99.90;;;;;;5066864;28;20382;-48
2022/12/04 09:13:03;;;;;;;67.38;34.03;;;0.40;99.90;;;;;;5057608;28;20041;-45
2022/12/04 09:15:29;;;;;;;64.45;34.83;;;0.40;99.90;;;;;;5057764;28;20429;-47
2022/12/04 09:17:55;;;;;;;64.45;35.78;;;0.40;99.90;;;;;;5056917;28;20032;-44
2022/12/04 09:20:20;;;;;;;61.97;33.88;;;0.40;99.90;;;;;;5056378;28;20542;-42
2022/12/04 09:22:46;;;;;;;60.55;33.00;;;0.40;99.90;;;;;;5068563;28;20104;-42
2022/12/04 09:25:12;;;;;;;70.70;34.47;;;0.40;99.90;;;;;;5068269;28;20036;-43
2022/12/04 09:27:40;;;;;;;66.68;35.65;;;0.40;99.90;;;;;;5075243;28;20139;-45
2022/12/04 09:30:08;;;;;;;64.68;34.53;;;0.50;99.90;;;;;;5075918;28;20047;-47
2022/12/04 09:32:34;;;;;;;61.72;34.80;;;0.50;99.90;;;;;;5054398;28;20083;-47
2022/12/04 09:34:59;;;;;;;66.18;35.35;;;0.50;99.90;;;;;;5055871;28;20487;-44
2022/12/04 09:37:25;;;;;;;64.28;34.83;;;0.50;99.90;;;;;;5057864;28;20041;-41
2022/12/04 09:39:51;;;;;;;61.10;32.25;;;0.50;99.90;;;;;;5043920;28;20402;-43
2022/12/04 09:42:16;;;;;;;59.85;33.83;;;0.60;99.90;;;;;;5057853;28;20045;-41
2022/12/04 09:44:57;;;;;;;61.88;33.88;;;0.60;99.90;;;;;;5058191;28;20511;-41
2022/12/04 09:47:35;;;;;;;77.82;33.28;;;0.60;99.90;;;;;;5057443;28;20091;-43
2022/12/04 09:50:04;;;;;;;61.97;33.20;;;0.60;99.90;;;;;;5057213;28;20048;-44
2022/12/04 09:52:59;;;;;;;61.85;33.10;;;0.60;99.90;;;;;;5055994;28;20055;-44
2022/12/04 09:55:34;;;;;;;61.20;33.58;;;0.70;99.90;;;;;;5056778;28;20032;-43
2022/12/04 09:58:04;;;;;;;60.10;33.10;;;0.70;99.90;;;;;;5056892;28;20054;-42
2022/12/04 10:00:32;;;;;;;60.92;33.53;;;0.70;99.90;;;;;;5057665;28;20045;-46
2022/12/04 10:03:02;;;;;;;60.00;32.75;;;0.70;99.90;;;;;;5057097;28;20372;-45
2022/12/04 10:05:41;;;;;;;56.72;31.65;;;0.80;99.90;;;;;;5059092;28;20048;-42
2022/12/04 10:08:16;;;;;;;59.88;33.72;;;0.80;99.90;;;;;;5055347;28;20072;-45
2022/12/04 10:10:49;;;;;;;58.70;33.08;;;0.80;99.90;;;;;;5057072;28;20110;-45
2022/12/04 10:13:27;;;;;;;63.92;35.03;;;0.90;99.90;;;;;;5057115;28;20045;-44
2022/12/04 10:16:04;;;;;;;56.63;32.72;;;0.90;99.90;;;;;;5055302;28;20140;-45
2022/12/04 10:18:48;;;;;;;57.55;32.88;;;0.90;99.90;;;;;;5056294;28;20037;-49
2022/12/04 10:21:19;;;;;;;54.83;31.70;;;1.00;99.90;;;;;;5054457;28;20569;-44
2022/12/04 10:23:51;;;;;;;57.40;31.27;;;1.00;99.90;;;;;;5057125;28;20063;-47
2022/12/04 10:26:22;;;;;;;56.47;31.73;;;1.00;99.90;;;;;;5056346;28;20565;-41
2022/12/04 10:28:57;;;;;;;52.95;30.77;;;1.10;99.90;;;;;;5057149;28;20083;-44
2022/12/04 10:31:24;;;;;;;57.40;33.67;;;1.10;99.90;;;;;;5060559;28;20111;-44
2022/12/04 10:33:53;;;;;;;51.60;30.58;;;1.10;99.90;;;;;;5060122;28;20044;-44
2022/12/04 10:36:22;;;;;;;56.63;31.67;;;1.10;99.90;;;;;;5061002;28;20036;-43
2022/12/04 10:39:02;;;;;;;52.33;31.98;;;1.10;99.90;;;;;;5042636;28;20491;-45
2022/12/04 10:41:53;;;;;;;54.20;32.58;;;1.10;99.90;;;;;;5052548;28;20547;-43
2022/12/04 10:44:20;;;;;;;54.92;31.40;;;1.10;99.90;;;;;;5012094;28;20052;-42
2022/12/04 10:46:48;;;;;;;56.15;31.67;;;1.10;99.90;;;;;;4997657;28;20192;-44
2022/12/04 10:49:24;;;;;;;51.15;30.92;;;1.10;99.90;;;;;;4994396;28;20412;-42
2022/12/04 10:51:50;;;;;;;49.70;31.00;;;1.20;99.90;;;;;;4961376;28;20058;-47
2022/12/04 10:54:36;;;;;;;52.92;30.60;;;1.20;99.90;;;;;;5001024;28;20048;-42
2022/12/04 10:57:05;;;;;;;52.78;29.70;;;1.20;99.90;;;;;;4970439;28;20153;-44
2022/12/04 10:59:32;;;;;;;52.28;30.75;;;1.30;99.90;;;;;;4978054;28;20085;-43
2022/12/04 11:02:00;;;;;;;50.10;30.30;;;1.30;99.90;;;;;;4978431;28;20058;-45
2022/12/04 11:04:28;;;;;;;49.55;28.05;;;1.30;99.90;;;;;;4977579;28;20517;-42
2022/12/04 11:07:03;;;;;;;53.75;30.77;;;1.40;99.90;;;;;;4972752;28;20127;-41
2022/12/04 11:09:31;;;;;;;45.33;28.90;;;1.40;99.90;;;;;;4992519;28;20056;-42
2022/12/04 11:12:17;;;;;;;49.72;30.10;;;1.40;99.90;;;;;;4980810;28;20420;-44
2022/12/04 11:14:42;;;;;;;45.65;27.50;;;1.50;99.90;;;;;;4973245;28;20120;-47
2022/12/04 11:17:15;;;;;;;49.03;29.80;;;1.50;99.90;;;;;;4961606;28;20038;-45
2022/12/04 11:19:41;;;;;;;48.45;28.70;;;1.60;99.90;;;;;;4970371;28;20463;-41
2022/12/04 11:22:17;;;;;;;46.10;28.00;;;1.60;99.90;;;;;;5047505;28;20056;-41
2022/12/04 11:24:50;;;;;;;46.88;27.58;;;1.60;99.90;;;;;;5060163;28;20044;-46
2022/12/04 11:27:21;;;;;;;45.03;27.25;;;1.70;99.90;;;;;;5041605;28;20079;-43
2022/12/04 11:29:48;;;;;;;43.03;26.98;;;1.70;99.90;;;;;;5059214;28;20572;-44
2022/12/04 11:32:24;;;;;;;43.33;27.55;;;1.70;99.90;;;;;;5086244;28;20060;-44
2022/12/04 11:34:52;;;;;;;44.58;28.17;;;1.80;99.90;;;;;;5052681;28;20413;-45
2022/12/04 11:37:24;;;;;;;42.38;25.98;;;1.80;99.90;;;;;;5046610;28;20045;-43
2022/12/04 11:39:52;;;;;;;44.92;26.83;;;1.90;99.90;;;;;;5045188;28;20043;-48
2022/12/04 11:42:27;;;;;;;37.72;23.65;;;1.90;99.90;;;;;;5055624;28;20052;-43
2022/12/04 11:45:17;;;;;;;40.35;25.92;;;1.90;99.90;;;;;;5057828;28;20240;-45
2022/12/04 11:48:00;;;;;;;43.25;25.25;;;1.90;99.90;;;;;;5070298;28;20494;-48
2022/12/04 11:50:45;;;;;;;36.55;23.73;;;2.00;99.90;;;;;;5045024;28;20487;-43
2022/12/04 11:53:16;;;;;;;35.85;21.88;;;2.00;99.90;;;;;;5058434;28;20051;-44
2022/12/04 11:56:12;;;;;;;37.05;23.15;;;2.00;99.90;;;;;;5058829;28;20044;-43
2022/12/04 11:59:09;;;;;;;34.70;22.60;;;2.10;99.90;;;;;;5055414;28;20230;-45
2022/12/04 12:02:10;;;;;;;29.90;19.60;;;2.10;99.90;;;;;;5016022;28;20534;-46
2022/12/04 12:05:17;;;;;;;27.77;19.67;;;2.10;99.90;;;;;;4918889;29;20073;-46
2022/12/04 12:08:04;;;;;;;30.45;19.15;;;2.10;99.90;;;;;;4916337;29;20229;-46
2022/12/04 12:10:50;;;;;;;25.67;17.45;;;2.10;99.90;;;;;;4918005;29;20036;-44
2022/12/04 12:13:18;;;;;;;24.08;15.88;;;2.10;99.90;;;;;;4918488;29;20561;-44
2022/12/04 12:16:25;;;;;;;25.35;17.83;;;2.10;99.90;;;;;;4918223;29;20052;-43
2022/12/04 12:19:09;;;;;;;23.02;15.88;;;2.10;99.90;;;;;;4918076;29;20107;-48
2022/12/04 12:21:56;;;;;;;26.17;18.50;;;2.10;99.90;;;;;;4918303;29;20051;-44
2022/12/04 12:24:32;;;;;;;23.70;16.25;;;2.10;99.90;;;;;;4918643;29;20343;-45
2022/12/04 12:27:26;;;;;;;24.13;17.10;;;2.00;99.90;;;;;;4902622;29;20514;-43
2022/12/04 12:29:51;;;;;;;27.93;18.70;;;2.00;99.90;;;;;;4918155;29;20047;-45
2022/12/04 12:32:57;;;;;;;26.00;17.38;;;2.00;99.90;;;;;;4917717;29;20755;-47
2022/12/04 12:36:01;;;;;;;27.83;17.90;;;2.00;99.90;;;;;;4918363;29;20202;-44
2022/12/04 12:38:30;;;;;;;;;;;2.00;99.90;;;;;;4973477;28;20132;-44
2022/12/04 12:41:09;;;;;;;31.08;18.42;;;2.00;99.90;;;;;;5047523;28;19920;-42
2022/12/04 12:43:38;;;;;;;27.80;18.00;;;2.00;99.90;;;;;;5051941;28;20036;-50
2022/12/04 12:46:03;;;;;;;26.13;18.60;;;2.10;99.90;;;;;;5064953;28;20176;-41
2022/12/04 12:48:50;;;;;;;28.83;18.73;;;2.10;99.90;;;;;;5051003;28;20078;-43
2022/12/04 12:51:40;;;;;;;28.63;18.10;;;2.00;99.90;;;;;;5053519;28;20055;-43
2022/12/04 12:54:09;;;;;;;31.20;19.90;;;2.10;99.90;;;;;;5056128;28;20050;-46
2022/12/04 12:56:38;;;;;;;27.20;18.77;;;2.10;99.90;;;;;;5057135;28;20170;-44
2022/12/04 12:59:11;;;;;;;30.77;18.75;;;2.10;99.90;;;;;;5057295;28;20101;-42
2022/12/04 13:01:48;;;;;;;30.17;20.20;;;2.10;99.90;;;;;;5056196;28;20418;-44
2022/12/04 13:04:22;;;;;;;30.13;19.33;;;2.10;99.90;;;;;;5057900;28;20362;-41
2022/12/04 13:07:03;;;;;;;28.85;19.08;;;2.10;99.90;;;;;;5057398;28;20070;-47
2022/12/04 13:09:35;;;;;;;31.40;19.80;;;2.10;99.90;;;;;;5051559;28;20044;-49
2022/12/04 13:12:11;;;;;;;31.10;20.33;;;2.10;99.90;;;;;;5057743;28;20376;-45